< Typhoon 200705 2007 Season Typhoon 200707 >
Typhoon 200706 (PABUK)
General InformationTrack Information on Google MapsDetailed Wind InformationAccess Analytics MapList of All Images || NewsDisaster Info.WeblogTrackbackTyphoon FrontResourceGoogle EarthGE AnimationAtom FeedGeoJSON
Detalied Best Track (Time Zone = UTC)
Year Month Day Hour Lat. Long. Pressure (hPa) Wind (kt) Class Image Chart
2007 8 4 18 18.4 137.5 1006 0 2 Image Chart
2007 8 5 00 18.9 136.6 1004 0 2 Image Chart
2007 8 5 06 19.6 135.6 1000 35 3 Image Chart
2007 8 5 12 20.2 134.1 996 40 3 Image Chart
2007 8 5 18 20.6 133.0 996 40 3 Image Chart
2007 8 6 00 21.1 131.6 996 40 3 Image Chart
2007 8 6 06 21.4 130.4 992 45 3 Image Chart
2007 8 6 12 21.7 128.6 992 45 3 Image Chart
2007 8 6 18 21.5 126.7 990 50 4 Image Chart
2007 8 6 21 21.6 125.7 985 55 4 Image Chart
2007 8 7 00 21.8 124.8 980 60 4 Image Chart
2007 8 7 03 22.1 124.1 980 60 4 Image Chart
2007 8 7 06 22.2 123.3 980 60 4 Image Chart
2007 8 7 09 22.1 122.7 975 65 5 Image Chart
2007 8 7 12 21.9 122.1 975 65 5 Image Chart
2007 8 7 18 22.1 120.3 980 60 4 Image Chart
2007 8 8 00 22.3 118.6 985 55 4 Image Chart
2007 8 8 06 22.4 117.4 985 50 4 Image Chart
2007 8 8 12 22.1 116.0 990 45 3 Image Chart
2007 8 8 18 22.1 114.8 990 40 3 Image Chart
2007 8 9 00 22.0 113.7 992 35 3 Image Chart
2007 8 9 06 21.6 112.9 992 0 2 Image Chart
2007 8 9 12 21.0 112.8 992 0 2 Image Chart
2007 8 9 18 21.2 113.1 992 0 2 Image Chart
2007 8 10 00 21.7 113.4 992 0 2 Image Chart
2007 8 10 06 22.3 114.0 990 0 2 Image Chart
2007 8 10 12 22.5 113.6 992 0 2 Image Chart
2007 8 10 18 22.5 113.2 990 0 2 Image Chart
2007 8 11 00 22.6 113.7 992 0 2 Image Chart
2007 8 11 06 23.0 114.1 992 0 2 Image Chart
2007 8 11 12 23.3 115.0 992 0 2 Image Chart
2007 8 11 18 24.5 115.9 994 0 2 Image Chart
2007 8 12 00 25.3 117.0 994 0 2 Image Chart
2007 8 12 06 25.9 118.8 994 0 2 Image Chart
2007 8 12 12 28.0 121.3 994 0 2 Image Chart
2007 8 12 18 29.8 122.7 994 0 2 Image Chart
2007 8 13 00 30.7 123.3 994 0 2 Image Chart
2007 8 13 06 31.7 123.7 994 0 2 Image Chart
2007 8 13 12 32.8 124.8 996 0 2 Image Chart
2007 8 13 18 34.3 125.6 996 0 2 Image Chart
2007 8 14 00 35.7 125.9 998 0 2 Image Chart
2007 8 14 06 37.6 125.9 1000 0 2 Image Chart
2007 8 14 12 39.8 126.4 1002 0 6 Image Chart
2007 8 14 18 40.9 128.8 1004 0 6 Image Chart
2007 8 15 00 42.9 131.9 1006 0 6 Image Chart
2007 8 15 06 44.4 133.6 1006 0 6 Image Chart
Japan Meteorological Agency Best Track Data | Correction Date : 2007-09-21
< Typhoon 200705 2007 Season Typhoon 200707 >

Help